createdAt,value
2023-06-02T00:01:08.317Z,3.67
2023-06-02T00:03:37.488Z,3.60
2023-06-02T00:06:10.306Z,3.73
2023-06-02T00:08:39.972Z,7.77
2023-06-02T00:11:07.401Z,3.97
2023-06-02T00:13:34.681Z,3.70
2023-06-02T00:16:02.282Z,4.23
2023-06-02T00:18:29.636Z,3.80
2023-06-02T00:20:57.647Z,3.50
2023-06-02T00:23:25.132Z,3.70
2023-06-02T00:25:52.406Z,3.87
2023-06-02T00:28:19.690Z,4.10
2023-06-02T00:30:46.924Z,3.80
2023-06-02T00:33:14.134Z,3.67
2023-06-02T00:35:41.375Z,3.20
2023-06-02T00:38:08.593Z,3.60
2023-06-02T00:40:35.865Z,4.30
2023-06-02T00:43:03.468Z,6.43
2023-06-02T00:45:30.843Z,6.67
2023-06-02T00:47:58.255Z,3.77
2023-06-02T00:50:26.358Z,3.67
2023-06-02T00:52:56.603Z,3.20
2023-06-02T00:55:23.839Z,3.50
2023-06-02T00:57:52.656Z,4.00
2023-06-02T01:00:20.445Z,3.30
2023-06-02T01:02:47.781Z,4.30
2023-06-02T01:05:16.100Z,3.77
2023-06-02T01:07:47.911Z,3.30
2023-06-02T01:10:16.743Z,4.00
2023-06-02T01:12:45.048Z,3.57
2023-06-02T01:15:12.508Z,2.87
2023-06-02T01:17:46.495Z,3.23
2023-06-02T01:20:15.750Z,3.63
2023-06-02T01:22:51.560Z,2.87
2023-06-02T01:25:23.079Z,3.37
2023-06-02T01:27:50.731Z,4.07
2023-06-02T01:30:18.931Z,3.53
2023-06-02T01:32:56.635Z,3.03
2023-06-02T01:35:27.103Z,4.43
2023-06-02T01:37:58.251Z,2.90
2023-06-02T01:40:26.351Z,3.87
2023-06-02T01:42:54.200Z,3.83
2023-06-02T01:45:23.271Z,6.10
2023-06-02T01:47:50.575Z,5.00
2023-06-02T01:50:17.771Z,3.20
2023-06-02T01:52:45.039Z,3.80
2023-06-02T01:55:12.252Z,3.10
2023-06-02T01:57:39.434Z,4.03
2023-06-02T02:00:07.042Z,3.27
2023-06-02T02:02:34.282Z,3.33
2023-06-02T02:05:01.724Z,3.23
2023-06-02T02:07:30.067Z,2.97
2023-06-02T02:09:58.031Z,3.53
2023-06-02T02:12:25.627Z,4.20
2023-06-02T02:14:57.581Z,3.03
2023-06-02T02:17:29.514Z,3.07
2023-06-02T02:19:58.043Z,3.27
2023-06-02T02:22:25.423Z,3.73
2023-06-02T02:24:52.971Z,3.13
2023-06-02T02:27:20.169Z,2.73
2023-06-02T02:29:47.470Z,3.67
2023-06-02T02:32:14.701Z,3.43
2023-06-02T02:34:42.027Z,3.90
2023-06-02T02:37:11.884Z,3.27
2023-06-02T02:39:39.125Z,3.90
2023-06-02T02:42:06.590Z,3.77
2023-06-02T02:44:33.794Z,3.97
2023-06-02T02:47:01.729Z,3.10
2023-06-02T02:49:29.034Z,3.73
2023-06-02T02:51:57.717Z,3.40
2023-06-02T02:54:27.205Z,4.40
2023-06-02T02:56:54.571Z,2.90
2023-06-02T02:59:22.425Z,3.50
2023-06-02T03:01:50.040Z,4.03
2023-06-02T03:04:23.294Z,3.50
2023-06-02T03:06:51.512Z,3.73
2023-06-02T03:09:18.349Z,4.03
2023-06-02T03:11:45.425Z,3.20
2023-06-02T03:14:13.110Z,3.00
2023-06-02T03:16:42.039Z,3.53
2023-06-02T03:19:09.835Z,3.40
2023-06-02T03:21:43.015Z,4.40
2023-06-02T03:24:11.804Z,3.57
2023-06-02T03:26:41.456Z,3.80
2023-06-02T03:29:09.527Z,3.60
2023-06-02T03:31:36.627Z,3.90
2023-06-02T03:34:04.819Z,4.47
2023-06-02T03:36:38.572Z,4.10
2023-06-02T03:39:06.637Z,4.37
2023-06-02T03:41:34.112Z,4.10
2023-06-02T03:44:01.948Z,4.07
2023-06-02T03:46:29.035Z,3.83
2023-06-02T03:48:56.585Z,4.60
2023-06-02T03:51:23.695Z,4.60
2023-06-02T03:53:51.135Z,3.97
2023-06-02T03:56:18.948Z,4.07
2023-06-02T03:58:45.877Z,4.17
2023-06-02T04:01:13.379Z,3.80
2023-06-02T04:03:42.914Z,4.43
2023-06-02T04:06:10.056Z,3.87
2023-06-02T04:08:37.650Z,3.73
2023-06-02T04:11:04.916Z,3.23
2023-06-02T04:13:32.151Z,3.83
2023-06-02T04:16:00.061Z,4.07
2023-06-02T04:18:28.996Z,4.40
2023-06-02T04:20:56.032Z,4.33
2023-06-02T04:23:22.968Z,5.33
2023-06-02T04:25:50.348Z,3.83
2023-06-02T04:28:17.701Z,4.23
2023-06-02T04:30:44.847Z,3.90
2023-06-02T04:33:13.434Z,4.30
2023-06-02T04:35:40.517Z,4.50
2023-06-02T04:38:09.010Z,4.13
2023-06-02T04:40:38.837Z,4.40
2023-06-02T04:43:06.137Z,4.40
2023-06-02T04:45:33.203Z,3.80
2023-06-02T04:48:00.310Z,4.33
2023-06-02T04:50:28.378Z,4.70
2023-06-02T04:52:55.402Z,3.60
2023-06-02T04:55:22.259Z,4.30
2023-06-02T04:57:49.071Z,4.00
2023-06-02T05:00:17.182Z,4.00
2023-06-02T05:02:44.082Z,4.17
2023-06-02T05:05:11.321Z,4.20
2023-06-02T05:07:38.388Z,3.70
2023-06-02T05:10:05.989Z,3.70
2023-06-02T05:12:33.120Z,4.43
2023-06-02T05:14:59.987Z,4.33
2023-06-02T05:17:30.041Z,4.43
2023-06-02T05:19:57.036Z,4.47
2023-06-02T05:22:24.019Z,5.40
2023-06-02T05:24:51.129Z,4.70
2023-06-02T05:27:18.006Z,4.83
2023-06-02T05:29:44.940Z,3.90
2023-06-02T05:32:12.435Z,4.80
2023-06-02T05:34:40.486Z,4.70
2023-06-02T05:37:07.402Z,3.87
2023-06-02T05:39:34.273Z,4.67
2023-06-02T05:42:01.172Z,4.57
2023-06-02T05:44:28.011Z,4.40
2023-06-02T05:46:54.872Z,5.00
2023-06-02T05:49:21.725Z,4.67
2023-06-02T05:51:48.583Z,4.50
2023-06-02T05:54:15.545Z,4.50
2023-06-02T05:56:42.365Z,4.67
2023-06-02T05:59:09.991Z,3.67
2023-06-02T06:01:36.898Z,3.80
2023-06-02T06:04:03.998Z,4.20
2023-06-02T06:06:31.535Z,3.90
2023-06-02T06:08:58.649Z,4.50
2023-06-02T06:11:26.815Z,4.40
2023-06-02T06:13:53.694Z,3.67
2023-06-02T06:16:21.279Z,3.60
2023-06-02T06:18:48.533Z,4.20
2023-06-02T06:21:15.527Z,4.80
2023-06-02T06:23:42.601Z,3.63
2023-06-02T06:26:09.680Z,3.93
2023-06-02T06:28:36.591Z,4.13
2023-06-02T06:31:03.638Z,4.30
2023-06-02T06:33:30.570Z,5.90
2023-06-02T06:35:57.514Z,3.60
2023-06-02T06:38:24.511Z,4.60
2023-06-02T06:40:51.412Z,4.50
2023-06-02T06:45:48.373Z,5.67
2023-06-02T06:48:15.457Z,4.87
2023-06-02T06:50:42.394Z,5.10
2023-06-02T06:53:10.057Z,5.23
2023-06-02T06:55:37.360Z,4.70
2023-06-02T06:58:04.237Z,4.33
2023-06-02T07:00:32.254Z,4.73
2023-06-02T07:02:59.583Z,3.80
2023-06-02T07:05:26.988Z,4.07
2023-06-02T07:07:53.944Z,4.87
2023-06-02T07:10:21.048Z,4.13
2023-06-02T07:12:48.191Z,4.53
2023-06-02T07:15:15.536Z,4.57
2023-06-02T07:17:43.303Z,4.93
2023-06-02T07:20:11.848Z,4.23
2023-06-02T07:22:38.897Z,4.77
2023-06-02T07:25:06.761Z,5.40
2023-06-02T07:27:34.376Z,7.30
2023-06-02T07:30:01.647Z,8.70
2023-06-02T07:32:28.554Z,6.03
2023-06-02T07:34:55.458Z,6.67
2023-06-02T07:37:22.687Z,6.00
2023-06-02T07:39:49.616Z,6.13
2023-06-02T07:42:16.551Z,6.80
2023-06-02T07:44:43.361Z,5.83
2023-06-02T07:47:11.694Z,5.97
2023-06-02T07:49:38.861Z,5.83
2023-06-02T07:52:06.273Z,6.63
2023-06-02T07:54:33.255Z,6.30
2023-06-02T07:57:00.125Z,8.27
2023-06-02T07:59:27.003Z,7.35
2023-06-02T08:01:54.002Z,7.93
2023-06-02T08:04:26.807Z,8.40
2023-06-02T08:06:56.399Z,8.33
2023-06-02T08:09:23.844Z,7.45
2023-06-02T08:11:51.546Z,6.45
2023-06-02T08:14:18.881Z,6.18
2023-06-02T08:19:21.979Z,6.50
2023-06-02T08:21:49.315Z,6.47
2023-06-02T08:24:16.784Z,6.78
2023-06-02T08:26:45.403Z,5.88
2023-06-02T08:29:12.365Z,6.13
2023-06-02T08:31:40.756Z,6.72
2023-06-02T08:34:09.368Z,6.95
2023-06-02T08:36:36.745Z,7.55
2023-06-02T08:39:07.610Z,7.13
2023-06-02T08:41:40.620Z,7.45
2023-06-02T08:44:07.528Z,7.88
2023-06-02T08:46:35.738Z,7.18
2023-06-02T08:49:03.533Z,8.88
2023-06-02T08:51:38.327Z,9.60
2023-06-02T08:54:08.498Z,10.45
2023-06-02T08:56:35.515Z,9.88
2023-06-02T08:59:02.422Z,10.90
2023-06-02T09:01:29.766Z,12.15
2023-06-02T09:03:56.735Z,18.05
2023-06-02T09:06:27.982Z,10.70
2023-06-02T09:09:02.269Z,12.43
2023-06-02T09:11:31.849Z,12.02
2023-06-02T09:13:59.382Z,10.48
2023-06-02T09:16:41.910Z,10.68
2023-06-02T09:19:08.894Z,11.35
2023-06-02T09:21:36.982Z,10.10
2023-06-02T09:24:13.618Z,10.70
2023-06-02T09:26:51.679Z,11.38
2023-06-02T09:29:19.991Z,9.77
2023-06-02T09:31:54.239Z,10.10
2023-06-02T09:34:23.333Z,10.18
2023-06-02T09:36:57.297Z,10.65
2023-06-02T09:39:44.351Z,9.93
2023-06-02T09:42:13.223Z,8.52
2023-06-02T09:44:40.844Z,8.25
2023-06-02T09:47:28.279Z,8.95
2023-06-02T09:49:55.327Z,8.65
2023-06-02T09:52:22.199Z,7.72
2023-06-02T09:54:50.280Z,7.82
2023-06-02T09:57:17.849Z,7.88
2023-06-02T09:59:46.132Z,9.40
2023-06-02T10:02:13.877Z,8.82
2023-06-02T10:04:40.902Z,6.65
2023-06-02T10:07:26.471Z,6.30
2023-06-02T10:10:17.577Z,6.20
2023-06-02T10:13:15.101Z,6.05
2023-06-02T10:16:17.230Z,5.30
2023-06-02T10:19:05.025Z,5.03
2023-06-02T10:21:43.704Z,6.57
2023-06-02T10:24:19.828Z,5.82
2023-06-02T10:26:52.646Z,7.53
2023-06-02T10:29:20.099Z,5.53
2023-06-02T10:31:47.120Z,5.90
2023-06-02T10:34:35.492Z,5.63
2023-06-02T10:37:02.594Z,5.45
2023-06-02T10:39:41.607Z,4.95
2023-06-02T10:42:17.760Z,5.32
2023-06-02T10:44:45.074Z,4.97
2023-06-02T10:47:21.184Z,4.60
2023-06-02T10:49:51.608Z,4.10
2023-06-02T10:52:18.829Z,4.88
2023-06-02T10:54:45.764Z,5.90
2023-06-02T10:57:13.636Z,5.18
2023-06-02T10:59:40.484Z,5.43
2023-06-02T11:02:07.468Z,5.55
2023-06-02T11:04:35.794Z,6.57
2023-06-02T11:07:19.941Z,5.97
2023-06-02T11:09:52.070Z,4.70
2023-06-02T11:12:19.213Z,5.10
2023-06-02T11:15:05.527Z,4.38
2023-06-02T11:17:36.471Z,4.47
2023-06-02T11:20:06.547Z,4.22
2023-06-02T11:22:37.806Z,4.20
2023-06-02T11:25:05.491Z,5.60
2023-06-02T11:27:37.873Z,5.68
2023-06-02T11:30:12.737Z,3.78
2023-06-02T11:32:40.062Z,4.30
2023-06-02T11:35:10.988Z,4.75
2023-06-02T11:37:42.089Z,5.18
2023-06-02T11:40:14.496Z,4.10
2023-06-02T11:42:43.032Z,3.75
2023-06-02T11:45:23.547Z,3.60
2023-06-02T11:47:57.543Z,4.53
2023-06-02T11:50:25.086Z,3.88
2023-06-02T11:52:52.348Z,4.75
2023-06-02T11:55:20.248Z,4.07
2023-06-02T11:57:47.723Z,4.85
2023-06-02T12:00:20.557Z,4.00
2023-06-02T12:02:55.296Z,4.93
2023-06-02T12:05:38.293Z,4.03
2023-06-02T12:08:12.119Z,4.53
2023-06-02T12:10:40.172Z,3.63
2023-06-02T12:13:07.589Z,3.20
2023-06-02T12:15:35.029Z,3.53
2023-06-02T12:18:03.274Z,4.05
2023-06-02T12:20:43.163Z,3.55
2023-06-02T12:23:11.307Z,4.35
2023-06-02T12:25:39.533Z,3.78
2023-06-02T12:28:25.155Z,3.92
2023-06-02T12:30:52.689Z,4.10
2023-06-02T12:33:20.055Z,3.53
2023-06-02T12:35:47.975Z,3.67
2023-06-02T12:38:15.582Z,3.90
2023-06-02T12:40:42.829Z,3.75
2023-06-02T12:43:10.054Z,5.53
2023-06-02T12:45:37.508Z,3.90
2023-06-02T12:48:04.911Z,5.13
2023-06-02T12:50:32.150Z,3.65
2023-06-02T12:52:59.411Z,3.58
2023-06-02T12:55:27.874Z,3.35
2023-06-02T12:57:55.310Z,3.47
2023-06-02T13:00:22.779Z,3.35
2023-06-02T13:02:50.121Z,15.27
2023-06-02T13:05:17.701Z,4.13
2023-06-02T13:07:45.048Z,7.30
2023-06-02T13:10:13.118Z,3.42
2023-06-02T13:12:41.126Z,16.50
2023-06-02T13:15:08.905Z,6.30
2023-06-02T13:17:36.424Z,3.33
2023-06-02T13:20:04.384Z,3.03
2023-06-02T13:22:33.949Z,3.90
2023-06-02T13:25:01.468Z,3.38
2023-06-02T13:27:41.654Z,2.83
2023-06-02T13:30:10.182Z,2.75
2023-06-02T13:32:37.466Z,3.50
2023-06-02T13:35:04.848Z,2.97
2023-06-02T13:37:32.069Z,4.68
2023-06-02T13:39:59.266Z,3.25
2023-06-02T13:42:26.436Z,3.70
2023-06-02T13:44:53.703Z,4.90
2023-06-02T13:47:20.912Z,2.90
2023-06-02T13:49:48.288Z,3.10
2023-06-02T13:52:15.543Z,2.90
2023-06-02T13:54:43.070Z,3.45
2023-06-02T13:57:10.257Z,3.47
2023-06-02T13:59:37.655Z,3.28
2023-06-02T14:02:04.991Z,3.00
2023-06-02T14:04:32.219Z,3.92
2023-06-02T14:06:59.425Z,3.60
2023-06-02T14:09:26.629Z,4.43
2023-06-02T14:11:53.990Z,3.47
2023-06-02T14:14:21.317Z,2.67
2023-06-02T14:16:49.012Z,3.80
2023-06-02T14:19:16.339Z,3.88
2023-06-02T14:21:43.603Z,4.35
2023-06-02T14:24:10.812Z,2.83
2023-06-02T14:26:37.993Z,4.65
2023-06-02T14:29:05.422Z,9.93
2023-06-02T14:31:32.709Z,4.18
2023-06-02T14:34:00.115Z,4.10
2023-06-02T14:36:27.323Z,4.57
2023-06-02T14:38:54.566Z,3.10
2023-06-02T14:41:23.653Z,3.08
2023-06-02T14:43:51.155Z,3.90
2023-06-02T14:46:18.728Z,3.83
2023-06-02T14:48:46.263Z,3.63
2023-06-02T14:51:13.574Z,3.75
2023-06-02T14:53:41.039Z,3.38
2023-06-02T14:56:08.652Z,3.08
2023-06-02T14:58:36.395Z,3.53
2023-06-02T15:01:04.313Z,3.30
2023-06-02T15:03:31.774Z,3.20
2023-06-02T15:05:59.028Z,3.75
2023-06-02T15:08:26.287Z,4.15
2023-06-02T15:10:53.491Z,2.53
2023-06-02T15:13:20.730Z,3.63
2023-06-02T15:15:47.941Z,3.85
2023-06-02T15:18:15.238Z,3.60
2023-06-02T15:20:42.549Z,4.47
2023-06-02T15:23:09.760Z,3.30
2023-06-02T15:25:37.471Z,4.32
2023-06-02T15:28:05.292Z,3.90
2023-06-02T15:30:33.674Z,4.10
2023-06-02T15:33:01.953Z,3.85
2023-06-02T15:35:29.276Z,3.33
2023-06-02T15:37:56.516Z,4.75
2023-06-02T15:40:23.719Z,5.03
2023-06-02T15:42:51.273Z,3.58
2023-06-02T15:45:18.799Z,3.70
2023-06-02T15:47:46.122Z,2.70
2023-06-02T15:50:13.358Z,3.20
2023-06-02T15:52:40.958Z,2.83
2023-06-02T15:55:08.530Z,3.22
2023-06-02T15:57:37.384Z,2.83
2023-06-02T16:00:06.089Z,3.13
2023-06-02T16:02:33.453Z,2.80
2023-06-02T16:05:00.808Z,3.90
2023-06-02T16:07:28.011Z,4.22
2023-06-02T16:09:55.979Z,3.53
2023-06-02T16:12:23.567Z,2.85
2023-06-02T16:14:50.879Z,3.08
2023-06-02T16:17:18.264Z,2.58
2023-06-02T16:19:45.739Z,2.30
2023-06-02T16:22:13.085Z,2.92
2023-06-02T16:24:40.506Z,2.97
2023-06-02T16:27:08.608Z,2.30
2023-06-02T16:29:35.866Z,2.78
2023-06-02T16:32:03.146Z,2.45
2023-06-02T16:34:30.463Z,2.70
2023-06-02T16:36:59.661Z,3.25
2023-06-02T16:39:27.059Z,2.45
2023-06-02T16:41:56.250Z,2.60
2023-06-02T16:44:24.400Z,3.00
2023-06-02T16:46:51.639Z,2.55
2023-06-02T16:49:18.896Z,2.97
2023-06-02T16:51:46.700Z,2.50
2023-06-02T16:54:16.090Z,2.95
2023-06-02T16:56:43.312Z,3.00
2023-06-02T16:59:10.512Z,2.72
2023-06-02T17:01:37.929Z,3.13
2023-06-02T17:04:05.288Z,6.28
2023-06-02T17:06:32.894Z,3.67
2023-06-02T17:09:01.672Z,4.20
2023-06-02T17:11:31.133Z,3.22
2023-06-02T17:13:58.536Z,4.57
2023-06-02T17:16:26.051Z,2.58
2023-06-02T17:18:53.398Z,2.30
2023-06-02T17:21:20.613Z,2.53
2023-06-02T17:23:47.884Z,2.95
2023-06-02T17:26:15.117Z,2.58
2023-06-02T17:28:42.294Z,2.17
2023-06-02T17:31:10.094Z,2.88
2023-06-02T17:33:38.273Z,3.03
2023-06-02T17:36:08.175Z,3.25
2023-06-02T17:38:36.071Z,8.30
2023-06-02T17:41:03.756Z,3.05
2023-06-02T17:43:31.450Z,3.42
2023-06-02T17:45:59.749Z,3.63
2023-06-02T17:48:27.083Z,2.63
2023-06-02T17:50:54.394Z,2.58
2023-06-02T17:53:21.667Z,2.88
2023-06-02T17:55:49.182Z,3.45
2023-06-02T17:58:16.496Z,3.63
2023-06-02T18:00:43.739Z,3.40
2023-06-02T18:03:11.325Z,2.70
2023-06-02T18:05:38.573Z,2.63
2023-06-02T18:08:06.440Z,2.63
2023-06-02T18:10:33.672Z,2.75
2023-06-02T18:13:03.586Z,3.05
2023-06-02T18:15:30.816Z,3.08
2023-06-02T18:17:58.363Z,4.05
2023-06-02T18:20:25.656Z,3.13
2023-06-02T18:22:53.381Z,3.33
2023-06-02T18:25:21.054Z,2.85
2023-06-02T18:27:48.511Z,3.42
2023-06-02T18:30:15.888Z,5.45
2023-06-02T18:32:43.122Z,5.03
2023-06-02T18:35:10.484Z,2.63
2023-06-02T18:37:37.744Z,3.20
2023-06-02T18:40:06.013Z,3.00
2023-06-02T18:42:33.501Z,3.40
2023-06-02T18:45:00.886Z,3.20
2023-06-02T18:47:28.322Z,3.25
2023-06-02T18:49:55.573Z,3.30
2023-06-02T18:52:22.869Z,2.92
2023-06-02T18:54:50.179Z,3.28
2023-06-02T18:57:19.622Z,3.22
2023-06-02T18:59:46.829Z,4.20
2023-06-02T19:02:14.072Z,4.05
2023-06-02T19:04:41.307Z,4.35
2023-06-02T19:07:09.382Z,3.70
2023-06-02T19:09:37.085Z,5.63
2023-06-02T19:12:04.423Z,4.07
2023-06-02T19:14:31.639Z,3.03
2023-06-02T19:16:59.832Z,3.20
2023-06-02T19:19:27.343Z,3.33
2023-06-02T19:21:54.595Z,2.55
2023-06-02T19:24:25.147Z,3.15
2023-06-02T19:26:52.584Z,2.97
2023-06-02T19:29:20.117Z,3.35
2023-06-02T19:31:47.901Z,3.00
2023-06-02T19:34:15.474Z,3.15
2023-06-02T19:36:42.725Z,3.20
2023-06-02T19:39:10.088Z,3.00
2023-06-02T19:41:37.452Z,3.47
2023-06-02T19:44:04.852Z,3.15
2023-06-02T19:46:32.151Z,4.32
2023-06-02T19:48:59.449Z,3.47
2023-06-02T19:51:26.687Z,3.13
2023-06-02T19:53:53.907Z,3.60
2023-06-02T19:56:21.215Z,3.78
2023-06-02T19:58:48.704Z,3.10
2023-06-02T20:01:16.033Z,3.10
2023-06-02T20:03:43.456Z,3.15
2023-06-02T20:06:11.744Z,3.42
2023-06-02T20:08:40.571Z,3.30
2023-06-02T20:11:08.017Z,4.53
2023-06-02T20:13:35.470Z,4.80
2023-06-02T20:16:02.664Z,3.92
2023-06-02T20:18:29.873Z,4.32
2023-06-02T20:20:57.207Z,4.00
2023-06-02T20:23:25.088Z,3.95
2023-06-02T20:25:52.312Z,3.65
2023-06-02T20:28:19.599Z,4.18
2023-06-02T20:30:48.430Z,3.90
2023-06-02T20:33:17.126Z,3.45
2023-06-02T20:35:44.337Z,4.05
2023-06-02T20:38:11.626Z,3.58
2023-06-02T20:40:38.844Z,4.10
2023-06-02T20:43:06.205Z,3.88
2023-06-02T20:45:33.428Z,3.97
2023-06-02T20:48:00.637Z,4.03
2023-06-02T20:50:27.928Z,3.53
2023-06-02T20:52:55.159Z,3.80
2023-06-02T20:55:24.703Z,3.75
2023-06-02T20:57:52.022Z,3.80
2023-06-02T21:00:19.450Z,4.65
2023-06-02T21:02:47.010Z,3.97
2023-06-02T21:05:14.438Z,4.22
2023-06-02T21:07:41.651Z,4.75
2023-06-02T21:10:09.037Z,3.88
2023-06-02T21:12:36.458Z,4.63
2023-06-02T21:15:03.773Z,4.15
2023-06-02T21:17:31.009Z,4.38
2023-06-02T21:19:58.211Z,3.97
2023-06-02T21:22:25.878Z,4.20
2023-06-02T21:24:53.822Z,6.32
2023-06-02T21:27:21.082Z,6.78
2023-06-02T21:29:48.481Z,5.85
2023-06-02T21:32:15.883Z,4.55
2023-06-02T21:34:43.175Z,5.90
2023-06-02T21:37:10.442Z,5.05
2023-06-02T21:39:37.684Z,5.55
2023-06-02T21:42:05.001Z,4.97
2023-06-02T21:44:32.235Z,5.20
2023-06-02T21:46:59.455Z,4.88
2023-06-02T21:49:26.664Z,4.80
2023-06-02T21:51:53.902Z,4.00
2023-06-02T21:54:21.100Z,4.35
2023-06-02T21:56:51.068Z,4.28
2023-06-02T21:59:18.377Z,4.22
2023-06-02T22:01:45.635Z,4.63
2023-06-02T22:04:12.901Z,6.15
2023-06-02T22:06:40.136Z,6.25
2023-06-02T22:09:07.564Z,5.10
2023-06-02T22:11:34.753Z,5.10
2023-06-02T22:14:01.942Z,5.40
2023-06-02T22:16:29.258Z,4.95
2023-06-02T22:18:56.602Z,4.38
2023-06-02T22:21:47.802Z,5.03
2023-06-02T22:24:26.247Z,4.13
2023-06-02T22:26:55.032Z,4.70
2023-06-02T22:29:22.378Z,5.03
2023-06-02T22:31:49.838Z,3.92
2023-06-02T22:34:17.899Z,4.40
2023-06-02T22:36:46.374Z,4.30
2023-06-02T22:39:13.648Z,4.68
2023-06-02T22:41:40.900Z,4.63
2023-06-02T22:44:08.097Z,4.60
2023-06-02T22:46:35.347Z,7.95
2023-06-02T22:49:04.361Z,6.20
2023-06-02T22:51:31.764Z,5.38
2023-06-02T22:53:59.043Z,5.60
2023-06-02T22:56:26.585Z,5.50
2023-06-02T22:58:53.873Z,4.88
2023-06-02T23:01:24.989Z,5.55
2023-06-02T23:03:52.424Z,5.85
2023-06-02T23:06:19.744Z,6.00
2023-06-02T23:08:47.289Z,4.68
2023-06-02T23:11:14.560Z,4.72
2023-06-02T23:13:41.780Z,4.38
2023-06-02T23:16:09.054Z,5.28
2023-06-02T23:18:36.314Z,5.15
2023-06-02T23:21:03.998Z,5.10
2023-06-02T23:23:31.603Z,6.10
2023-06-02T23:25:59.655Z,5.18
2023-06-02T23:28:27.703Z,5.00
2023-06-02T23:30:54.936Z,5.22
2023-06-02T23:33:22.158Z,4.53
2023-06-02T23:35:49.821Z,5.57
2023-06-02T23:38:17.086Z,4.90
2023-06-02T23:40:44.355Z,5.45
2023-06-02T23:43:11.524Z,5.38
2023-06-02T23:45:38.719Z,6.10
2023-06-02T23:48:06.005Z,7.78
2023-06-02T23:50:33.237Z,5.93
2023-06-02T23:53:00.461Z,5.40
2023-06-02T23:55:27.811Z,5.22
2023-06-02T23:57:55.059Z,4.68
